TKPK

Robert L. Bradshaw International Airport

Basseterre, Saint Kitts and Nevis
TKPK 212325Z 2200/2224 08008KT P6SM VCSH SCT016 BKN045 FM221500 06012KT P6SM SCT025 FM221800 06013KT P6SM SCT250 AMD NOT SKED 2202/2211
Issued Valid From Valid To
Jan-21 @ 23:25 UTC
(48 minutes ago)
Jan-22 @ 00:00 UTC
(13 minutes ago)
Jan-23 @ 00:00 UTC
(in 24 hours)
Jan-22 @ 00:00 to Jan-22 @ 15:00
TKPK 212325Z 2200/2224 08008KT P6SM VCSH SCT016 BKN045
Wind Visibility Clouds
80° at 8 knots 10,000+ meters
  • Scattered at 1,600' AGL
  • Broken at 4,500' AGL
From Jan-22 @ 15:00 to Jan-22 @ 18:00
FM221500 06012KT P6SM SCT025
Wind Visibility Clouds
60° at 12 knots 10,000+ meters
  • Scattered at 2,500' AGL
From Jan-22 @ 18:00 to Jan-23 @ 00:00
FM221800 06013KT P6SM SCT250 AMD NOT SKED 2202/2211
Wind Visibility Clouds
60° at 13 knots 10,000+ meters
  • Scattered at 25,000' AGL
TKPK 212325Z 2200/2224 08008KT P6SM VCSH SCT016 BKN045 FM221500 06012KT P6SM SCT025 FM221800 06013KT P6SM SCT250 AMD NOT SKED 2202/2211
Issued Jan-21 @ 23:25 UTC
(48 minutes ago)
Valid From Jan-22 @ 00:00 UTC
(13 minutes ago)
Valid To Jan-23 @ 00:00 UTC
(in 24 hours)
Jan-22 @ 00:00 - Jan-22 @ 15:00
Wind Visibility
80° at 8 knots 10,000+ meters
Clouds
  • Scattered at 1,600' AGL
  • Broken at 4,500' AGL
From Jan-22 @ 15:00 - Jan-22 @ 18:00
Wind Visibility
60° at 12 knots 10,000+ meters
Clouds
  • Scattered at 2,500' AGL
From Jan-22 @ 18:00 - Jan-23 @ 00:00
Wind Visibility
60° at 13 knots 10,000+ meters
Clouds
  • Scattered at 25,000' AGL